createdAt,value
2016-11-16T00:01:17.345Z,20.19
2016-11-16T00:02:27.787Z,20.2
2016-11-16T00:03:38.222Z,20.19
2016-11-16T00:04:48.660Z,20.13
2016-11-16T00:06:13.843Z,20.19
2016-11-16T00:07:24.312Z,20.22
2016-11-16T00:08:34.747Z,20.19
2016-11-16T00:09:45.184Z,20.27
2016-11-16T00:10:55.627Z,20.35
2016-11-16T00:12:06.061Z,20.17
2016-11-16T00:13:16.500Z,20.19
2016-11-16T00:14:26.987Z,20.26
2016-11-16T00:15:37.911Z,20.2
2016-11-16T00:16:48.580Z,20.12
2016-11-16T00:17:59.020Z,20.12
2016-11-16T00:19:09.465Z,20.16
2016-11-16T00:20:20.414Z,20.1
2016-11-16T00:21:30.857Z,20.1
2016-11-16T00:22:41.400Z,20.23
2016-11-16T00:23:51.844Z,20.16
2016-11-16T00:25:02.280Z,20.2
2016-11-16T00:27:37.904Z,20.15
2016-11-16T00:29:02.914Z,20.13
2016-11-16T00:30:13.352Z,20.12
2016-11-16T00:31:23.786Z,20.12
2016-11-16T00:32:34.221Z,20.13
2016-11-16T00:33:44.767Z,20.15
2016-11-16T00:34:55.215Z,20.2
2016-11-16T00:36:20.207Z,20.3
2016-11-16T00:37:30.641Z,20.25
2016-11-16T00:38:41.133Z,20.34
2016-11-16T00:39:51.668Z,20.33
2016-11-16T00:41:02.203Z,20.34
2016-11-16T00:42:12.734Z,20.33
2016-11-16T00:45:17.880Z,20.31
2016-11-16T00:46:28.413Z,20.25
2016-11-16T00:47:38.943Z,20.22
2016-11-16T00:48:49.598Z,20.2
2016-11-16T00:50:00.131Z,20.17
2016-11-16T00:51:10.690Z,20.16
2016-11-16T00:52:21.218Z,20.19
2016-11-16T00:53:31.763Z,20.01
2016-11-16T00:54:57.024Z,20.02
2016-11-16T00:56:07.561Z,20.13
2016-11-16T00:57:32.650Z,20.05
2016-11-16T00:58:43.176Z,20.04
2016-11-16T00:59:54.435Z,19.98
2016-11-16T01:01:05.480Z,19.94
2016-11-16T01:02:16.007Z,19.98
2016-11-16T01:03:26.535Z,19.95
2016-11-16T01:04:37.066Z,20.01
2016-11-16T01:05:47.697Z,20.1
2016-11-16T01:06:58.231Z,19.98
2016-11-16T01:08:08.760Z,20
2016-11-16T01:09:19.288Z,20.07
2016-11-16T01:10:29.817Z,20.05
2016-11-16T01:11:40.574Z,20.04
2016-11-16T01:12:51.102Z,20.07
2016-11-16T01:14:01.634Z,20.1
2016-11-16T01:15:12.166Z,20.07
2016-11-16T01:16:22.690Z,20.02
2016-11-16T01:17:33.315Z,20.05
2016-11-16T01:18:43.843Z,20.15
2016-11-16T01:19:54.377Z,20.12
2016-11-16T01:21:19.429Z,20.05
2016-11-16T01:22:30.058Z,20.12
2016-11-16T01:23:40.530Z,20.07
2016-11-16T01:24:50.996Z,20.1
2016-11-16T01:26:01.430Z,20.2
2016-11-16T01:28:51.387Z,20.13
2016-11-16T01:30:01.824Z,20.12
2016-11-16T01:31:12.264Z,20.16
2016-11-16T01:32:22.696Z,20.13
2016-11-16T01:33:33.231Z,20.08
2016-11-16T01:34:43.665Z,20.15
2016-11-16T01:35:54.098Z,20.1
2016-11-16T01:37:04.532Z,20.02
2016-11-16T01:38:14.973Z,20.08
2016-11-16T01:39:25.409Z,20.07
2016-11-16T01:40:35.847Z,20.12
2016-11-16T01:41:46.284Z,20.1
2016-11-16T01:42:56.724Z,20.1
2016-11-16T01:44:07.169Z,20.08
2016-11-16T01:45:18.190Z,20.1
2016-11-16T01:46:28.631Z,20.2
2016-11-16T01:47:39.071Z,20.23
2016-11-16T01:48:49.506Z,20.15
2016-11-16T01:49:59.942Z,20.19
2016-11-16T01:51:24.929Z,20.17
2016-11-16T01:52:35.367Z,20.35
2016-11-16T01:53:45.799Z,20.37
2016-11-16T01:54:56.236Z,20.33
2016-11-16T01:56:06.771Z,20.26
2016-11-16T01:57:17.214Z,20.16
2016-11-16T01:58:27.652Z,20.01
2016-11-16T01:59:38.094Z,20.12
2016-11-16T02:02:13.615Z,20.12
2016-11-16T02:03:24.059Z,20.16
2016-11-16T02:04:49.040Z,20.17
2016-11-16T02:05:59.481Z,20.17
2016-11-16T02:07:09.922Z,20.22
2016-11-16T02:08:20.364Z,20.19
2016-11-16T02:09:30.804Z,20.23
2016-11-16T02:10:41.241Z,20.23
2016-11-16T02:11:51.681Z,20.19
2016-11-16T02:13:02.314Z,20.15
2016-11-16T02:15:38.223Z,20.12
2016-11-16T02:16:48.658Z,20.1
2016-11-16T02:17:59.200Z,20.1
2016-11-16T02:19:24.182Z,20.12
2016-11-16T02:20:34.621Z,20.12
2016-11-16T02:21:45.059Z,20.19
2016-11-16T02:22:55.495Z,20.19
2016-11-16T02:24:06.039Z,20.17
2016-11-16T02:25:16.478Z,20.25
2016-11-16T02:26:26.918Z,20.16
2016-11-16T02:27:37.362Z,20.2
2016-11-16T02:28:47.994Z,20.12
2016-11-16T02:29:58.461Z,20.1
2016-11-16T02:31:08.901Z,20.12
2016-11-16T02:32:19.335Z,20.16
2016-11-16T02:33:29.770Z,20.15
2016-11-16T02:34:40.312Z,20.13
2016-11-16T02:35:51.244Z,20.1
2016-11-16T02:37:01.684Z,20.08
2016-11-16T02:39:37.297Z,20.12
2016-11-16T02:40:47.735Z,20.12
2016-11-16T02:41:58.182Z,20.05
2016-11-16T02:43:08.622Z,20.12
2016-11-16T02:44:19.058Z,20.15
2016-11-16T02:45:44.045Z,20.16
2016-11-16T02:46:54.479Z,20.01
2016-11-16T02:48:04.922Z,20.12
2016-11-16T02:49:29.935Z,20.01
2016-11-16T02:50:40.375Z,20.04
2016-11-16T02:51:50.860Z,19.97
2016-11-16T02:53:01.781Z,20
2016-11-16T02:54:12.248Z,19.97
2016-11-16T02:55:22.688Z,19.98
2016-11-16T02:56:33.264Z,19.97
2016-11-16T02:57:43.699Z,19.92
2016-11-16T02:58:54.133Z,19.95
2016-11-16T03:00:04.573Z,19.94
2016-11-16T03:01:15.013Z,20.05
2016-11-16T03:02:25.450Z,19.92
2016-11-16T03:03:35.896Z,19.82
2016-11-16T03:04:46.331Z,19.94
2016-11-16T03:05:56.764Z,19.85
2016-11-16T03:07:07.197Z,19.92
2016-11-16T03:08:17.638Z,19.89
2016-11-16T03:09:42.617Z,19.89
2016-11-16T03:10:53.055Z,20.02
2016-11-16T03:12:18.042Z,20.02
2016-11-16T03:13:29.063Z,19.95
2016-11-16T03:14:39.498Z,19.97
2016-11-16T03:15:49.932Z,19.94
2016-11-16T03:17:14.913Z,19.98
2016-11-16T03:18:25.350Z,19.82
2016-11-16T03:19:35.788Z,19.8
2016-11-16T03:21:00.772Z,19.95
2016-11-16T03:22:11.209Z,19.85
2016-11-16T03:23:21.644Z,19.95
2016-11-16T03:24:32.085Z,19.97
2016-11-16T03:25:42.520Z,19.95
2016-11-16T03:26:52.958Z,19.94
2016-11-16T03:28:03.398Z,20.02
2016-11-16T03:29:13.833Z,20.01
2016-11-16T03:30:24.279Z,19.94
2016-11-16T03:31:49.260Z,19.94
2016-11-16T03:32:59.694Z,20.1
2016-11-16T03:34:10.130Z,20.07
2016-11-16T03:35:20.572Z,20.05
2016-11-16T03:36:31.004Z,20.15
2016-11-16T03:37:41.437Z,20.13
2016-11-16T03:38:51.910Z,20.15
2016-11-16T03:40:02.495Z,20.08
2016-11-16T03:41:27.476Z,20.12
2016-11-16T03:42:52.455Z,20.12
2016-11-16T03:44:02.896Z,20.13
2016-11-16T03:45:13.554Z,20.19
2016-11-16T03:46:23.988Z,20.26
2016-11-16T03:47:34.424Z,20.19
2016-11-16T03:48:45.839Z,20.19
2016-11-16T03:49:56.272Z,20.05
2016-11-16T03:51:06.908Z,20.16
2016-11-16T03:52:17.346Z,20.13
2016-11-16T03:53:27.784Z,20.16
2016-11-16T03:54:38.217Z,20.15
2016-11-16T03:56:03.400Z,20.16
2016-11-16T03:57:13.834Z,20.13
2016-11-16T03:58:24.286Z,20.12
2016-11-16T03:59:34.725Z,20.13
2016-11-16T04:00:45.159Z,20.1
2016-11-16T04:01:55.600Z,20.15
2016-11-16T04:03:06.036Z,20.17
2016-11-16T04:04:16.473Z,20.19
2016-11-16T04:05:26.913Z,20.16
2016-11-16T04:06:37.348Z,20.19
2016-11-16T04:07:48.684Z,20.16
2016-11-16T04:08:59.119Z,20.25
2016-11-16T04:10:09.499Z,20.05
2016-11-16T04:11:19.812Z,20.13
2016-11-16T04:12:30.131Z,20.12
2016-11-16T04:13:55.221Z,20.04
2016-11-16T04:15:06.014Z,20.16
2016-11-16T04:16:16.334Z,20.08
2016-11-16T04:17:41.217Z,20.01
2016-11-16T04:19:06.203Z,19.85
2016-11-16T04:20:16.521Z,19.87
2016-11-16T04:21:41.412Z,19.92
2016-11-16T04:22:51.728Z,19.95
2016-11-16T04:24:02.201Z,19.85
2016-11-16T04:25:12.614Z,19.79
2016-11-16T04:26:23.025Z,19.79
2016-11-16T04:27:33.436Z,19.72
2016-11-16T04:28:43.849Z,19.7
2016-11-16T04:29:54.470Z,19.68
2016-11-16T04:31:19.461Z,19.7
2016-11-16T04:32:29.872Z,19.58
2016-11-16T04:33:40.283Z,19.61
2016-11-16T04:34:50.793Z,19.65
2016-11-16T04:36:01.693Z,19.67
2016-11-16T04:37:12.103Z,19.68
2016-11-16T04:38:22.512Z,19.78
2016-11-16T04:39:32.922Z,19.8
2016-11-16T04:40:43.532Z,19.89
2016-11-16T04:41:53.948Z,19.7
2016-11-16T04:43:04.360Z,19.79
2016-11-16T04:44:14.769Z,19.87
2016-11-16T04:45:25.179Z,19.85
2016-11-16T04:46:35.587Z,19.86
2016-11-16T04:47:46.000Z,19.86
2016-11-16T04:48:56.412Z,19.85
2016-11-16T04:50:06.874Z,19.98
2016-11-16T04:51:17.291Z,19.95
2016-11-16T04:52:27.705Z,19.85
2016-11-16T04:53:38.121Z,20.01
2016-11-16T04:54:48.533Z,19.89
2016-11-16T04:55:58.948Z,19.83
2016-11-16T04:57:09.358Z,19.83
2016-11-16T04:58:19.796Z,19.8
2016-11-16T04:59:30.207Z,19.8
2016-11-16T05:00:40.614Z,19.82
2016-11-16T05:01:51.024Z,19.86
2016-11-16T05:03:01.443Z,19.86
2016-11-16T05:04:11.953Z,19.85
2016-11-16T05:05:22.372Z,19.8
2016-11-16T05:06:32.778Z,19.85
2016-11-16T05:07:43.189Z,19.85
2016-11-16T05:09:08.255Z,19.86
2016-11-16T05:10:18.667Z,19.82
2016-11-16T05:11:29.110Z,19.7
2016-11-16T05:12:39.518Z,19.76
2016-11-16T05:13:49.932Z,19.67
2016-11-16T05:15:00.346Z,19.62
2016-11-16T05:16:10.757Z,19.67
2016-11-16T05:17:21.166Z,19.65
2016-11-16T05:18:46.125Z,19.72
2016-11-16T05:19:56.538Z,19.7
2016-11-16T05:21:07.438Z,19.78
2016-11-16T05:22:17.848Z,19.79
2016-11-16T05:23:28.253Z,19.8
2016-11-16T05:24:38.668Z,19.68
2016-11-16T05:25:49.280Z,19.7
2016-11-16T05:26:59.694Z,19.76
2016-11-16T05:28:10.108Z,19.78
2016-11-16T05:29:20.528Z,19.68
2016-11-16T05:30:30.946Z,19.8
2016-11-16T05:31:41.488Z,19.78
2016-11-16T05:32:51.927Z,19.71
2016-11-16T05:35:27.311Z,19.62
2016-11-16T05:38:02.682Z,19.58
2016-11-16T05:39:13.095Z,19.61
2016-11-16T05:40:23.571Z,19.67
2016-11-16T05:41:33.992Z,19.72
2016-11-16T05:42:44.895Z,19.78
2016-11-16T05:43:55.300Z,19.65
2016-11-16T05:45:05.763Z,19.79
2016-11-16T05:47:41.332Z,19.79
2016-11-16T05:48:51.742Z,19.72
2016-11-16T05:50:02.161Z,19.82
2016-11-16T05:51:12.573Z,19.67
2016-11-16T05:52:23.040Z,19.82
2016-11-16T05:53:34.269Z,19.7
2016-11-16T05:54:44.795Z,19.7
2016-11-16T05:55:55.324Z,19.75
2016-11-16T05:57:05.861Z,19.85
2016-11-16T05:58:16.390Z,19.75
2016-11-16T05:59:27.020Z,19.75
2016-11-16T06:00:37.549Z,19.72
2016-11-16T06:01:48.081Z,19.65
2016-11-16T06:02:58.611Z,19.5
2016-11-16T06:04:09.139Z,19.52
2016-11-16T06:05:19.865Z,19.58
2016-11-16T06:06:30.399Z,19.65
2016-11-16T06:07:40.928Z,19.55
2016-11-16T06:08:51.455Z,19.62
2016-11-16T06:10:16.508Z,19.55
2016-11-16T06:11:27.034Z,19.53
2016-11-16T06:12:37.566Z,19.4
2016-11-16T06:13:48.095Z,19.4
2016-11-16T06:14:58.657Z,19.39
2016-11-16T06:16:09.321Z,19.45
2016-11-16T06:17:19.857Z,19.43
2016-11-16T06:18:30.387Z,19.52
2016-11-16T06:19:40.917Z,19.49
2016-11-16T06:20:51.451Z,19.55
2016-11-16T06:22:02.078Z,19.53
2016-11-16T06:23:27.131Z,19.57
2016-11-16T06:24:37.673Z,19.52
2016-11-16T06:25:48.240Z,19.52
2016-11-16T06:26:58.875Z,19.43
2016-11-16T06:28:09.404Z,19.53
2016-11-16T06:29:19.934Z,19.53
2016-11-16T06:30:30.461Z,19.62
2016-11-16T06:31:40.993Z,19.6
2016-11-16T06:33:06.046Z,19.6
2016-11-16T06:34:16.575Z,19.46
2016-11-16T06:35:27.102Z,19.35
2016-11-16T06:36:37.636Z,19.34
2016-11-16T06:37:48.162Z,19.39
2016-11-16T06:38:58.691Z,19.42
2016-11-16T06:40:09.233Z,19.34
2016-11-16T06:41:34.285Z,19.32
2016-11-16T06:42:59.838Z,19.32
2016-11-16T06:44:10.370Z,19.32
2016-11-16T06:45:21.396Z,19.43
2016-11-16T06:46:31.925Z,19.39
2016-11-16T06:47:42.459Z,19.43
2016-11-16T06:48:52.988Z,19.4
2016-11-16T06:50:03.519Z,19.45
2016-11-16T06:51:14.047Z,19.32
2016-11-16T06:52:24.577Z,19.31
2016-11-16T06:53:35.110Z,19.28
2016-11-16T06:56:10.924Z,19.4
2016-11-16T06:57:21.457Z,19.3
2016-11-16T06:58:31.986Z,19.39
2016-11-16T06:59:42.717Z,19.34
2016-11-16T07:00:53.246Z,19.46
2016-11-16T07:02:03.777Z,19.42
2016-11-16T07:03:14.308Z,19.32
2016-11-16T07:04:39.362Z,19.4
2016-11-16T07:05:50.003Z,19.47
2016-11-16T07:07:00.526Z,19.39
2016-11-16T07:08:11.057Z,19.32
2016-11-16T07:09:21.607Z,19.25
2016-11-16T07:10:32.339Z,19.27
2016-11-16T07:11:42.869Z,19.16
2016-11-16T07:12:53.396Z,19.13
2016-11-16T07:14:03.926Z,19.25
2016-11-16T07:15:14.519Z,19.27
2016-11-16T07:16:25.049Z,19.24
2016-11-16T07:17:36.082Z,19.28
2016-11-16T07:18:46.619Z,19.32
2016-11-16T07:19:57.147Z,19.34
2016-11-16T07:21:07.676Z,19.31
2016-11-16T07:22:18.414Z,19.3
2016-11-16T07:23:28.943Z,19.34
2016-11-16T07:24:39.473Z,19.38
2016-11-16T07:25:49.996Z,19.31
2016-11-16T07:27:00.523Z,19.38
2016-11-16T07:28:11.260Z,19.39
2016-11-16T07:29:21.815Z,19.35
2016-11-16T07:30:32.377Z,19.35
2016-11-16T07:31:42.907Z,19.34
2016-11-16T07:32:53.432Z,19.4
2016-11-16T07:34:03.964Z,19.43
2016-11-16T07:35:14.525Z,19.42
2016-11-16T07:36:25.055Z,19.52
2016-11-16T07:37:35.583Z,19.53
2016-11-16T07:38:46.120Z,19.45
2016-11-16T07:39:56.753Z,19.38
2016-11-16T07:41:07.280Z,19.43
2016-11-16T07:42:17.810Z,19.49
2016-11-16T07:43:42.865Z,19.35
2016-11-16T07:44:53.493Z,19.35
2016-11-16T07:46:04.023Z,19.28
2016-11-16T07:47:14.552Z,19.07
2016-11-16T07:48:25.081Z,19.13
2016-11-16T07:49:35.651Z,19.13
2016-11-16T07:50:46.186Z,19.21
2016-11-16T07:51:56.713Z,19.15
2016-11-16T07:53:07.280Z,19.17
2016-11-16T07:54:17.810Z,19.15
2016-11-16T07:55:28.341Z,19.25
2016-11-16T07:56:39.069Z,19.3
2016-11-16T07:57:49.598Z,19.24
2016-11-16T07:59:00.125Z,19.16
2016-11-16T08:00:10.659Z,19.24
2016-11-16T08:01:21.221Z,19.25
2016-11-16T08:02:31.847Z,19.28
2016-11-16T08:03:42.380Z,19.17
2016-11-16T08:04:52.904Z,19.21
2016-11-16T08:06:03.375Z,19.15
2016-11-16T08:07:13.787Z,19.25
2016-11-16T08:08:24.296Z,19.15
2016-11-16T08:09:34.710Z,19.16
2016-11-16T08:10:45.161Z,19.21
2016-11-16T08:11:55.596Z,19.06
2016-11-16T08:13:06.001Z,19.05
2016-11-16T08:14:16.904Z,18.96
2016-11-16T08:15:27.315Z,18.9
2016-11-16T08:16:37.725Z,18.99
2016-11-16T08:17:48.196Z,18.91
2016-11-16T08:18:58.611Z,18.93
2016-11-16T08:20:09.224Z,18.89
2016-11-16T08:21:34.184Z,18.69
2016-11-16T08:22:59.141Z,18.56
2016-11-16T08:24:24.098Z,18.68
2016-11-16T08:25:34.710Z,18.78
2016-11-16T08:26:45.124Z,18.78
2016-11-16T08:27:55.539Z,18.79
2016-11-16T08:29:05.952Z,18.79
2016-11-16T08:30:16.364Z,18.89
2016-11-16T08:31:27.008Z,18.89
2016-11-16T08:32:37.415Z,19.01
2016-11-16T08:33:47.826Z,18.9
2016-11-16T08:34:58.249Z,18.82
2016-11-16T08:36:08.655Z,18.75
2016-11-16T08:37:19.199Z,18.76
2016-11-16T08:38:29.610Z,18.79
2016-11-16T08:39:40.075Z,18.72
2016-11-16T08:41:05.128Z,18.9
2016-11-16T08:42:15.658Z,18.96
2016-11-16T08:43:26.187Z,19.01
2016-11-16T08:44:36.715Z,18.9
2016-11-16T08:45:47.242Z,18.86
2016-11-16T08:46:57.774Z,18.9
2016-11-16T08:48:08.398Z,18.84
2016-11-16T08:49:18.924Z,18.97
2016-11-16T08:50:29.451Z,18.9
2016-11-16T08:51:39.977Z,18.91
2016-11-16T08:54:01.021Z,18.84
2016-11-16T08:55:11.468Z,18.87
2016-11-16T08:56:21.901Z,18.83
2016-11-16T08:57:32.335Z,18.89
2016-11-16T08:58:42.773Z,18.86
2016-11-16T08:59:53.407Z,18.96
2016-11-16T09:01:03.841Z,18.89
2016-11-16T09:02:14.279Z,18.97
2016-11-16T09:03:24.712Z,18.96
2016-11-16T09:04:35.152Z,18.94
2016-11-16T09:05:45.701Z,18.96
2016-11-16T09:06:56.137Z,18.97
2016-11-16T09:08:06.572Z,18.93
2016-11-16T09:09:17.011Z,18.89
2016-11-16T09:10:27.443Z,18.99
2016-11-16T09:11:38.076Z,19.12
2016-11-16T09:12:48.476Z,19.06
2016-11-16T09:14:13.371Z,19.07
2016-11-16T09:15:23.691Z,19.21
2016-11-16T09:16:34.009Z,19.27
2016-11-16T09:17:44.349Z,19.27
2016-11-16T09:18:54.673Z,19.4
2016-11-16T09:20:04.999Z,19.31
2016-11-16T09:21:15.321Z,19.38
2016-11-16T09:22:25.841Z,19.27
2016-11-16T09:23:36.157Z,19.17
2016-11-16T09:24:46.491Z,19.23
2016-11-16T09:25:56.812Z,19.23
2016-11-16T09:27:07.129Z,19.32
2016-11-16T09:28:17.645Z,19.38
2016-11-16T09:29:42.527Z,19.39
2016-11-16T09:30:52.848Z,19.42
2016-11-16T09:32:17.731Z,19.45
2016-11-16T09:33:28.047Z,19.53
2016-11-16T09:34:38.374Z,19.53
2016-11-16T09:35:48.691Z,19.52
2016-11-16T09:36:59.007Z,19.55
2016-11-16T09:38:09.392Z,19.52
2016-11-16T09:39:34.348Z,19.61
2016-11-16T09:40:44.758Z,19.65
2016-11-16T09:41:55.171Z,19.78
2016-11-16T09:43:05.585Z,19.85
2016-11-16T09:44:15.999Z,19.78
2016-11-16T09:45:26.408Z,19.8
2016-11-16T09:46:37.328Z,19.82
2016-11-16T09:47:47.795Z,19.79
2016-11-16T09:48:58.356Z,20
2016-11-16T09:50:08.890Z,20
2016-11-16T09:51:19.419Z,19.97
2016-11-16T09:52:29.947Z,19.95
2016-11-16T09:53:40.476Z,19.82
2016-11-16T09:54:51.005Z,20.01
2016-11-16T09:56:01.540Z,20.04
2016-11-16T09:57:27.094Z,20.13
2016-11-16T09:58:37.624Z,20.1
2016-11-16T09:59:48.196Z,20.16
2016-11-16T10:00:58.759Z,20.2
2016-11-16T10:02:24.016Z,20.41
2016-11-16T10:03:34.547Z,20.33
2016-11-16T10:04:45.108Z,20.34
2016-11-16T10:05:55.651Z,20.31
2016-11-16T10:07:06.188Z,20.15
2016-11-16T10:08:16.918Z,20.08
2016-11-16T10:09:41.975Z,19.92
2016-11-16T10:10:52.501Z,19.97
2016-11-16T10:12:03.037Z,19.94
2016-11-16T10:13:13.567Z,19.95
2016-11-16T10:14:24.101Z,20.07
2016-11-16T10:15:34.629Z,20.2
2016-11-16T10:16:45.159Z,20.22
2016-11-16T10:18:10.212Z,20.34
2016-11-16T10:19:35.271Z,20.26
2016-11-16T10:20:45.743Z,20.38
2016-11-16T10:21:56.153Z,20.44
2016-11-16T10:23:06.561Z,20.35
2016-11-16T10:24:17.176Z,20.5
2016-11-16T10:25:27.582Z,20.54
2016-11-16T10:26:37.996Z,20.5
2016-11-16T10:27:48.407Z,20.35
2016-11-16T10:28:58.817Z,20.51
2016-11-16T10:30:09.230Z,20.54
2016-11-16T10:31:19.642Z,20.66
2016-11-16T10:32:30.058Z,20.69
2016-11-16T10:33:40.516Z,20.53
2016-11-16T10:34:50.929Z,20.63
2016-11-16T10:36:01.833Z,20.63
2016-11-16T10:37:12.244Z,20.72
2016-11-16T10:38:22.654Z,20.72
2016-11-16T10:39:33.065Z,20.78
2016-11-16T10:40:43.474Z,20.82
2016-11-16T10:42:08.438Z,20.79
2016-11-16T10:43:18.854Z,20.87
2016-11-16T10:44:29.268Z,20.88
2016-11-16T10:45:39.671Z,20.83
2016-11-16T10:46:50.277Z,20.83
2016-11-16T10:48:15.236Z,20.88
2016-11-16T10:49:25.644Z,20.81
2016-11-16T10:50:36.097Z,20.81
2016-11-16T10:51:46.500Z,20.81
2016-11-16T10:52:57.105Z,20.81
2016-11-16T10:54:07.551Z,20.82
2016-11-16T10:55:18.023Z,20.9
2016-11-16T10:56:28.553Z,20.94
2016-11-16T10:57:53.621Z,21.01
2016-11-16T10:59:04.151Z,21.06
2016-11-16T11:00:14.675Z,21.09
2016-11-16T11:01:25.202Z,21.08
2016-11-16T11:02:35.727Z,21.24
2016-11-16T11:03:46.252Z,21.19
2016-11-16T11:04:18.765Z,21.21
2016-11-16T11:05:29.296Z,21.19
2016-11-16T11:06:39.829Z,21.27
2016-11-16T11:07:50.384Z,21.27
2016-11-16T11:09:01.314Z,21.36
2016-11-16T11:10:11.749Z,21.3
2016-11-16T11:11:22.182Z,21.31
2016-11-16T11:12:47.167Z,21.28
2016-11-16T11:13:57.952Z,21.33
2016-11-16T11:15:08.388Z,21.27
2016-11-16T11:16:18.825Z,21.31
2016-11-16T11:17:29.263Z,21.36
2016-11-16T11:18:39.702Z,21.43
2016-11-16T11:19:50.140Z,21.49
2016-11-16T11:21:00.576Z,21.58
2016-11-16T11:22:11.013Z,21.68
2016-11-16T11:23:21.445Z,21.64
2016-11-16T11:24:31.886Z,21.7
2016-11-16T11:25:42.419Z,21.7
2016-11-16T11:26:52.849Z,21.81
2016-11-16T11:28:03.283Z,21.79
2016-11-16T11:29:42.818Z,21.74
2016-11-16T11:30:53.458Z,21.7
2016-11-16T11:32:03.896Z,21.9
2016-11-16T11:33:14.336Z,21.89
2016-11-16T11:34:39.315Z,21.79
2016-11-16T11:35:49.750Z,21.83
2016-11-16T11:37:00.190Z,21.93
2016-11-16T11:38:10.633Z,22.02
2016-11-16T11:39:21.080Z,22.08
2016-11-16T11:40:32.166Z,22.06
2016-11-16T11:41:43.592Z,22.26
2016-11-16T11:42:55.137Z,22.45
2016-11-16T11:44:05.584Z,22.52
2016-11-16T11:45:16.033Z,22.69
2016-11-16T11:46:26.492Z,22.64
2016-11-16T11:47:36.980Z,22.81
2016-11-16T11:48:47.945Z,22.89
2016-11-16T11:49:58.385Z,23.03
2016-11-16T11:51:08.862Z,23.11
2016-11-16T11:52:19.300Z,23.18
2016-11-16T11:53:29.739Z,23.29
2016-11-16T11:54:40.204Z,23.47
2016-11-16T11:55:50.646Z,23.64
2016-11-16T11:57:01.583Z,23.72
2016-11-16T11:58:27.052Z,23.57
2016-11-16T11:59:37.488Z,23.75
2016-11-16T12:00:47.928Z,23.77
2016-11-16T12:01:58.369Z,23.78
2016-11-16T12:03:09.293Z,23.89
2016-11-16T12:04:19.931Z,24
2016-11-16T12:05:30.879Z,24.14
2016-11-16T12:06:41.318Z,24.29
2016-11-16T12:07:51.757Z,24.48
2016-11-16T12:09:02.683Z,24.56
2016-11-16T12:10:13.228Z,24.61
2016-11-16T12:11:38.209Z,24.8
2016-11-16T12:12:48.660Z,24.82
2016-11-16T12:13:59.124Z,24.92
2016-11-16T12:15:09.561Z,25.02
2016-11-16T12:17:45.972Z,25.11
2016-11-16T12:18:56.412Z,25.14
2016-11-16T12:20:06.856Z,25.16
2016-11-16T12:21:17.296Z,25.34
2016-11-16T12:22:27.735Z,25.45
2016-11-16T12:23:38.174Z,25.66
2016-11-16T12:24:49.106Z,25.75
2016-11-16T12:26:00.449Z,25.76
2016-11-16T12:27:10.891Z,25.78
2016-11-16T12:28:21.335Z,26.03
2016-11-16T12:29:31.774Z,26.16
2016-11-16T12:30:42.217Z,26.24
2016-11-16T12:31:52.685Z,26.47
2016-11-16T12:33:03.123Z,26.5
2016-11-16T12:34:13.576Z,26.57
2016-11-16T12:35:24.021Z,26.68
2016-11-16T12:36:34.405Z,26.9
2016-11-16T12:37:44.789Z,27.01
2016-11-16T12:38:55.197Z,27.02
2016-11-16T12:40:05.647Z,26.94
2016-11-16T12:41:16.062Z,26.9
2016-11-16T12:42:26.479Z,26.93
2016-11-16T12:43:37.093Z,27.08
2016-11-16T12:44:47.505Z,27.15
2016-11-16T12:45:57.918Z,27.35
2016-11-16T12:47:08.332Z,27.61
2016-11-16T12:48:18.741Z,27.49
2016-11-16T12:49:29.154Z,27.48
2016-11-16T12:50:39.565Z,27.3
2016-11-16T12:51:49.977Z,27.38
2016-11-16T12:53:00.390Z,27.13
2016-11-16T12:54:10.821Z,27.16
2016-11-16T12:55:21.429Z,27.3
2016-11-16T12:56:46.395Z,27.35
2016-11-16T12:57:56.805Z,27.46
2016-11-16T12:59:07.215Z,27.46
2016-11-16T13:01:57.168Z,27.58
2016-11-16T13:03:07.580Z,27.45
2016-11-16T13:04:32.548Z,27.28
2016-11-16T13:05:42.983Z,27.45
2016-11-16T13:06:53.400Z,27.58
2016-11-16T13:08:03.817Z,27.81
2016-11-16T13:09:14.235Z,27.87
2016-11-16T13:10:24.717Z,27.77
2016-11-16T13:11:35.251Z,27.78
2016-11-16T13:12:45.785Z,27.91
2016-11-16T13:13:56.318Z,28.03
2016-11-16T13:15:06.859Z,28.15
2016-11-16T13:16:17.394Z,28.38
2016-11-16T13:17:27.929Z,28.7
2016-11-16T13:18:38.485Z,28.74
2016-11-16T13:19:49.036Z,28.77
2016-11-16T13:20:59.579Z,28.7
2016-11-16T13:22:10.625Z,28.7
2016-11-16T13:23:21.165Z,28.7
2016-11-16T13:24:46.227Z,28.79
2016-11-16T13:25:56.761Z,28.77
2016-11-16T13:27:07.296Z,28.62
2016-11-16T13:28:17.928Z,28.64
2016-11-16T13:29:28.463Z,28.7
2016-11-16T13:30:39.188Z,28.8
2016-11-16T13:31:49.727Z,28.85
2016-11-16T13:33:00.269Z,28.95
2016-11-16T13:34:11.338Z,28.94
2016-11-16T13:35:21.907Z,28.88
2016-11-16T13:36:32.443Z,29.23
2016-11-16T13:37:42.980Z,29.3
2016-11-16T13:38:53.527Z,29.35
2016-11-16T13:40:04.271Z,29.41
2016-11-16T13:41:15.308Z,29.54
2016-11-16T13:42:40.376Z,29.64
2016-11-16T13:43:50.911Z,29.67
2016-11-16T13:45:16.536Z,29.63
2016-11-16T13:46:27.451Z,29.6
2016-11-16T13:47:38.346Z,29.57
2016-11-16T13:48:48.768Z,29.62
2016-11-16T13:49:59.181Z,29.47
2016-11-16T13:51:09.796Z,29.51
2016-11-16T13:53:45.182Z,29.35
2016-11-16T13:54:55.598Z,29.49
2016-11-16T13:56:06.127Z,29.82
2016-11-16T13:57:16.549Z,29.73
2016-11-16T13:58:26.965Z,29.67
2016-11-16T13:59:37.412Z,29.71
2016-11-16T14:00:47.821Z,29.74
2016-11-16T14:01:58.235Z,29.97
2016-11-16T14:03:08.654Z,29.88
2016-11-16T14:04:33.619Z,29.82
2016-11-16T14:05:44.038Z,29.79
2016-11-16T14:08:19.425Z,30.06
2016-11-16T14:09:29.843Z,29.89
2016-11-16T14:12:05.232Z,29.64
2016-11-16T14:13:15.647Z,29.52
2016-11-16T14:14:40.618Z,29.55
2016-11-16T14:15:51.031Z,29.63
2016-11-16T14:17:01.648Z,29.67
2016-11-16T14:18:12.074Z,29.6
2016-11-16T14:19:22.486Z,29.49
2016-11-16T14:20:32.906Z,29.36
2016-11-16T14:21:43.324Z,29.21
2016-11-16T14:22:53.750Z,29.18
2016-11-16T14:24:04.165Z,29.12
2016-11-16T14:25:14.576Z,28.92
2016-11-16T14:26:24.987Z,28.82
2016-11-16T14:27:35.890Z,28.69
2016-11-16T14:28:46.502Z,28.73
2016-11-16T14:29:56.915Z,28.62
2016-11-16T14:31:07.335Z,28.55
2016-11-16T14:32:17.749Z,28.52
2016-11-16T14:33:28.162Z,28.61
2016-11-16T14:34:38.577Z,28.94
2016-11-16T14:35:48.992Z,29.12
2016-11-16T14:37:13.956Z,29.21
2016-11-16T14:38:24.377Z,29.2
2016-11-16T14:39:34.790Z,28.76
2016-11-16T14:40:45.207Z,28.69
2016-11-16T14:41:55.621Z,28.67
2016-11-16T14:43:06.034Z,28.32
2016-11-16T14:44:16.449Z,28.43
2016-11-16T14:45:26.862Z,28.32
2016-11-16T14:48:02.267Z,28.65
2016-11-16T14:49:12.848Z,28.73
2016-11-16T14:50:23.892Z,28.98
2016-11-16T14:51:35.241Z,29.1
2016-11-16T14:52:47.504Z,28.97
2016-11-16T14:54:27.608Z,28.77
2016-11-16T14:55:52.872Z,28.88
2016-11-16T14:57:03.407Z,29.08
2016-11-16T14:58:13.948Z,29.21
2016-11-16T14:59:24.491Z,29.32
2016-11-16T15:00:35.026Z,29.52
2016-11-16T15:01:45.691Z,29.44
2016-11-16T15:02:56.228Z,29.57
2016-11-16T15:04:06.775Z,29.67
2016-11-16T15:05:17.318Z,29.69
2016-11-16T15:06:27.856Z,29.69
2016-11-16T15:07:38.394Z,29.78
2016-11-16T15:08:48.927Z,29.69
2016-11-16T15:09:59.463Z,29.74
2016-11-16T15:11:10.003Z,29.64
2016-11-16T15:12:35.108Z,29.55
2016-11-16T15:14:00.197Z,29.52
2016-11-16T15:15:10.737Z,29.63
2016-11-16T15:16:21.274Z,29.63
2016-11-16T15:17:31.816Z,29.6
2016-11-16T15:18:42.488Z,29.62
2016-11-16T15:20:07.551Z,29.42
2016-11-16T15:21:18.089Z,29.41
2016-11-16T15:22:28.624Z,29.45
2016-11-16T15:23:39.208Z,29.35
2016-11-16T15:24:49.748Z,29.14
2016-11-16T15:26:00.286Z,29.15
2016-11-16T15:27:25.355Z,29.03
2016-11-16T15:30:00.984Z,28.95
2016-11-16T15:31:11.523Z,29.02
2016-11-16T15:32:22.056Z,28.91
2016-11-16T15:33:47.219Z,28.94
2016-11-16T15:34:57.757Z,28.98
2016-11-16T15:36:08.813Z,29
2016-11-16T15:37:33.883Z,28.85
2016-11-16T15:38:44.422Z,28.73
2016-11-16T15:39:54.960Z,28.67
2016-11-16T15:41:05.534Z,28.61
2016-11-16T15:42:16.071Z,28.73
2016-11-16T15:43:26.607Z,28.76
2016-11-16T15:44:37.183Z,28.76
2016-11-16T15:45:47.725Z,28.79
2016-11-16T15:46:58.982Z,28.82
2016-11-16T15:48:24.044Z,28.76
2016-11-16T15:49:34.641Z,28.72
2016-11-16T15:50:45.181Z,28.82
2016-11-16T15:51:55.759Z,28.88
2016-11-16T15:53:06.302Z,28.98
2016-11-16T15:54:16.843Z,28.92
2016-11-16T15:55:27.380Z,29.02
2016-11-16T15:56:37.922Z,28.98